sensor_id;sensor_type;location;lat;lon;timestamp;P1;durP1;ratioP1;P2;durP2;ratioP2
6679;SDS011;3376;42.664;23.346;2023-06-05T00:02:20;10.83;;;9.10;;
6679;SDS011;3376;42.664;23.346;2023-06-05T00:04:47;10.13;;;9.43;;
6679;SDS011;3376;42.664;23.346;2023-06-05T00:07:14;11.30;;;10.30;;
6679;SDS011;3376;42.664;23.346;2023-06-05T00:09:40;10.17;;;9.57;;
6679;SDS011;3376;42.664;23.346;2023-06-05T00:12:08;9.90;;;9.30;;
6679;SDS011;3376;42.664;23.346;2023-06-05T00:14:35;10.67;;;9.93;;
6679;SDS011;3376;42.664;23.346;2023-06-05T00:17:03;10.90;;;10.00;;
6679;SDS011;3376;42.664;23.346;2023-06-05T00:19:32;9.83;;;9.17;;
6679;SDS011;3376;42.664;23.346;2023-06-05T00:21:59;9.27;;;8.70;;
6679;SDS011;3376;42.664;23.346;2023-06-05T00:24:26;9.67;;;8.70;;
6679;SDS011;3376;42.664;23.346;2023-06-05T00:26:53;12.90;;;10.10;;
6679;SDS011;3376;42.664;23.346;2023-06-05T00:29:20;10.20;;;9.70;;
6679;SDS011;3376;42.664;23.346;2023-06-05T00:31:47;11.33;;;10.43;;
6679;SDS011;3376;42.664;23.346;2023-06-05T00:34:15;9.60;;;9.00;;
6679;SDS011;3376;42.664;23.346;2023-06-05T00:36:42;9.83;;;9.23;;
6679;SDS011;3376;42.664;23.346;2023-06-05T00:39:08;9.70;;;8.63;;
6679;SDS011;3376;42.664;23.346;2023-06-05T00:41:35;9.30;;;8.67;;
6679;SDS011;3376;42.664;23.346;2023-06-05T00:44:06;8.73;;;8.33;;
6679;SDS011;3376;42.664;23.346;2023-06-05T00:46:33;9.97;;;9.10;;
6679;SDS011;3376;42.664;23.346;2023-06-05T00:49:00;10.17;;;9.67;;
6679;SDS011;3376;42.664;23.346;2023-06-05T00:51:28;11.43;;;10.80;;
6679;SDS011;3376;42.664;23.346;2023-06-05T00:53:55;11.27;;;10.77;;
6679;SDS011;3376;42.664;23.346;2023-06-05T00:56:22;8.97;;;8.47;;
6679;SDS011;3376;42.664;23.346;2023-06-05T00:58:49;9.43;;;8.73;;
6679;SDS011;3376;42.664;23.346;2023-06-05T01:01:16;9.30;;;8.70;;
6679;SDS011;3376;42.664;23.346;2023-06-05T01:03:45;9.73;;;8.93;;
6679;SDS011;3376;42.664;23.346;2023-06-05T01:06:12;9.43;;;8.63;;
6679;SDS011;3376;42.664;23.346;2023-06-05T01:08:44;9.27;;;8.77;;
6679;SDS011;3376;42.664;23.346;2023-06-05T01:11:13;8.67;;;8.00;;
6679;SDS011;3376;42.664;23.346;2023-06-05T01:13:47;8.83;;;8.33;;
6679;SDS011;3376;42.664;23.346;2023-06-05T01:16:20;8.70;;;8.20;;
6679;SDS011;3376;42.664;23.346;2023-06-05T01:18:56;8.97;;;8.13;;
6679;SDS011;3376;42.664;23.346;2023-06-05T01:21:27;9.00;;;8.50;;
6679;SDS011;3376;42.664;23.346;2023-06-05T01:23:55;9.13;;;8.17;;
6679;SDS011;3376;42.664;23.346;2023-06-05T01:26:24;9.30;;;8.80;;
6679;SDS011;3376;42.664;23.346;2023-06-05T01:29:00;9.73;;;9.03;;
6679;SDS011;3376;42.664;23.346;2023-06-05T01:31:31;9.20;;;8.47;;
6679;SDS011;3376;42.664;23.346;2023-06-05T01:34:02;8.77;;;8.37;;
6679;SDS011;3376;42.664;23.346;2023-06-05T01:36:32;9.33;;;8.73;;
6679;SDS011;3376;42.664;23.346;2023-06-05T01:39:01;9.23;;;8.80;;
6679;SDS011;3376;42.664;23.346;2023-06-05T01:41:29;10.10;;;9.40;;
6679;SDS011;3376;42.664;23.346;2023-06-05T01:43:57;9.20;;;8.70;;
6679;SDS011;3376;42.664;23.346;2023-06-05T01:46:24;9.03;;;8.60;;
6679;SDS011;3376;42.664;23.346;2023-06-05T01:48:51;11.00;;;10.20;;
6679;SDS011;3376;42.664;23.346;2023-06-05T01:51:19;10.17;;;9.40;;
6679;SDS011;3376;42.664;23.346;2023-06-05T01:53:46;11.20;;;10.63;;
6679;SDS011;3376;42.664;23.346;2023-06-05T01:56:15;10.77;;;10.00;;
6679;SDS011;3376;42.664;23.346;2023-06-05T01:58:45;9.43;;;8.53;;
6679;SDS011;3376;42.664;23.346;2023-06-05T02:01:12;9.50;;;8.90;;
6679;SDS011;3376;42.664;23.346;2023-06-05T02:03:41;8.57;;;8.10;;
6679;SDS011;3376;42.664;23.346;2023-06-05T02:06:12;8.33;;;7.83;;
6679;SDS011;3376;42.664;23.346;2023-06-05T02:08:40;8.83;;;8.40;;
6679;SDS011;3376;42.664;23.346;2023-06-05T02:11:07;10.87;;;10.27;;
6679;SDS011;3376;42.664;23.346;2023-06-05T02:13:38;61.13;;;41.67;;
6679;SDS011;3376;42.664;23.346;2023-06-05T02:16:05;24.83;;;20.63;;
6679;SDS011;3376;42.664;23.346;2023-06-05T02:18:34;12.20;;;11.13;;
6679;SDS011;3376;42.664;23.346;2023-06-05T02:21:02;10.33;;;9.50;;
6679;SDS011;3376;42.664;23.346;2023-06-05T02:23:29;8.80;;;8.03;;
6679;SDS011;3376;42.664;23.346;2023-06-05T02:25:57;8.87;;;8.37;;
6679;SDS011;3376;42.664;23.346;2023-06-05T02:28:23;8.17;;;7.63;;
6679;SDS011;3376;42.664;23.346;2023-06-05T02:30:53;8.73;;;8.23;;
6679;SDS011;3376;42.664;23.346;2023-06-05T02:33:20;8.63;;;8.10;;
6679;SDS011;3376;42.664;23.346;2023-06-05T02:35:47;8.00;;;7.57;;
6679;SDS011;3376;42.664;23.346;2023-06-05T02:38:14;8.57;;;8.20;;
6679;SDS011;3376;42.664;23.346;2023-06-05T02:40:40;8.30;;;7.73;;
6679;SDS011;3376;42.664;23.346;2023-06-05T02:43:07;8.83;;;8.30;;
6679;SDS011;3376;42.664;23.346;2023-06-05T02:45:36;10.33;;;9.93;;
6679;SDS011;3376;42.664;23.346;2023-06-05T02:48:04;9.60;;;8.93;;
6679;SDS011;3376;42.664;23.346;2023-06-05T02:50:31;9.63;;;8.87;;
6679;SDS011;3376;42.664;23.346;2023-06-05T02:52:58;9.00;;;8.40;;
6679;SDS011;3376;42.664;23.346;2023-06-05T02:55:25;12.00;;;10.93;;
6679;SDS011;3376;42.664;23.346;2023-06-05T02:57:55;9.80;;;9.10;;
6679;SDS011;3376;42.664;23.346;2023-06-05T03:00:22;12.73;;;9.93;;
6679;SDS011;3376;42.664;23.346;2023-06-05T03:02:50;10.70;;;10.20;;
6679;SDS011;3376;42.664;23.346;2023-06-05T03:05:19;10.43;;;9.83;;
6679;SDS011;3376;42.664;23.346;2023-06-05T03:07:49;9.13;;;8.70;;
6679;SDS011;3376;42.664;23.346;2023-06-05T03:10:18;9.00;;;8.60;;
6679;SDS011;3376;42.664;23.346;2023-06-05T03:12:45;9.57;;;9.07;;
6679;SDS011;3376;42.664;23.346;2023-06-05T03:15:12;8.50;;;7.93;;
6679;SDS011;3376;42.664;23.346;2023-06-05T03:17:41;9.03;;;8.13;;
6679;SDS011;3376;42.664;23.346;2023-06-05T03:20:08;9.30;;;8.47;;
6679;SDS011;3376;42.664;23.346;2023-06-05T03:22:37;8.13;;;7.60;;
6679;SDS011;3376;42.664;23.346;2023-06-05T03:25:04;8.97;;;8.13;;
6679;SDS011;3376;42.664;23.346;2023-06-05T03:27:33;9.00;;;8.40;;
6679;SDS011;3376;42.664;23.346;2023-06-05T03:30:00;9.17;;;8.77;;
6679;SDS011;3376;42.664;23.346;2023-06-05T03:32:27;9.17;;;8.67;;
6679;SDS011;3376;42.664;23.346;2023-06-05T03:34:53;9.60;;;9.03;;
6679;SDS011;3376;42.664;23.346;2023-06-05T03:37:20;10.33;;;9.70;;
6679;SDS011;3376;42.664;23.346;2023-06-05T03:39:48;8.67;;;8.27;;
6679;SDS011;3376;42.664;23.346;2023-06-05T03:42:15;9.57;;;9.00;;
6679;SDS011;3376;42.664;23.346;2023-06-05T03:44:41;11.07;;;9.80;;
6679;SDS011;3376;42.664;23.346;2023-06-05T03:47:08;8.70;;;7.90;;
6679;SDS011;3376;42.664;23.346;2023-06-05T03:49:35;8.23;;;7.83;;
6679;SDS011;3376;42.664;23.346;2023-06-05T03:52:02;8.93;;;8.43;;
6679;SDS011;3376;42.664;23.346;2023-06-05T03:54:29;11.47;;;10.47;;
6679;SDS011;3376;42.664;23.346;2023-06-05T03:56:59;10.37;;;9.57;;
6679;SDS011;3376;42.664;23.346;2023-06-05T03:59:27;11.10;;;10.30;;
6679;SDS011;3376;42.664;23.346;2023-06-05T04:01:54;11.50;;;10.53;;
6679;SDS011;3376;42.664;23.346;2023-06-05T04:04:21;10.10;;;9.37;;
6679;SDS011;3376;42.664;23.346;2023-06-05T04:06:48;11.53;;;10.57;;
6679;SDS011;3376;42.664;23.346;2023-06-05T04:09:15;12.23;;;11.37;;
6679;SDS011;3376;42.664;23.346;2023-06-05T04:11:43;11.80;;;11.00;;
6679;SDS011;3376;42.664;23.346;2023-06-05T04:14:12;10.90;;;10.40;;
6679;SDS011;3376;42.664;23.346;2023-06-05T04:16:39;12.13;;;10.93;;
6679;SDS011;3376;42.664;23.346;2023-06-05T04:19:09;11.33;;;10.67;;
6679;SDS011;3376;42.664;23.346;2023-06-05T04:21:37;12.57;;;11.17;;
6679;SDS011;3376;42.664;23.346;2023-06-05T04:24:04;13.20;;;11.97;;
6679;SDS011;3376;42.664;23.346;2023-06-05T04:26:34;12.13;;;11.27;;
6679;SDS011;3376;42.664;23.346;2023-06-05T04:29:02;11.57;;;10.63;;
6679;SDS011;3376;42.664;23.346;2023-06-05T04:31:36;12.17;;;10.93;;
6679;SDS011;3376;42.664;23.346;2023-06-05T04:34:05;19.90;;;11.07;;
6679;SDS011;3376;42.664;23.346;2023-06-05T04:36:33;11.67;;;10.77;;
6679;SDS011;3376;42.664;23.346;2023-06-05T04:39:01;11.67;;;10.97;;
6679;SDS011;3376;42.664;23.346;2023-06-05T04:41:29;12.23;;;11.27;;
6679;SDS011;3376;42.664;23.346;2023-06-05T04:43:57;13.13;;;12.10;;
6679;SDS011;3376;42.664;23.346;2023-06-05T04:46:25;13.60;;;12.80;;
6679;SDS011;3376;42.664;23.346;2023-06-05T04:48:53;12.83;;;11.67;;
6679;SDS011;3376;42.664;23.346;2023-06-05T04:51:22;13.10;;;12.00;;
6679;SDS011;3376;42.664;23.346;2023-06-05T04:53:49;14.10;;;12.83;;
6679;SDS011;3376;42.664;23.346;2023-06-05T04:56:17;13.10;;;12.40;;
6679;SDS011;3376;42.664;23.346;2023-06-05T04:58:45;14.33;;;13.03;;
6679;SDS011;3376;42.664;23.346;2023-06-05T05:01:15;14.30;;;13.07;;
6679;SDS011;3376;42.664;23.346;2023-06-05T05:03:43;13.80;;;12.83;;
6679;SDS011;3376;42.664;23.346;2023-06-05T05:06:13;13.83;;;13.03;;
6679;SDS011;3376;42.664;23.346;2023-06-05T05:08:41;14.57;;;13.20;;
6679;SDS011;3376;42.664;23.346;2023-06-05T05:11:10;14.27;;;13.17;;
6679;SDS011;3376;42.664;23.346;2023-06-05T05:13:37;15.43;;;13.83;;
6679;SDS011;3376;42.664;23.346;2023-06-05T05:16:04;15.13;;;13.83;;
6679;SDS011;3376;42.664;23.346;2023-06-05T05:18:32;15.00;;;14.00;;
6679;SDS011;3376;42.664;23.346;2023-06-05T05:20:59;14.40;;;13.27;;
6679;SDS011;3376;42.664;23.346;2023-06-05T05:23:27;13.53;;;12.70;;
6679;SDS011;3376;42.664;23.346;2023-06-05T05:25:54;13.47;;;12.67;;
6679;SDS011;3376;42.664;23.346;2023-06-05T05:28:21;14.00;;;12.83;;
6679;SDS011;3376;42.664;23.346;2023-06-05T05:30:48;14.20;;;13.00;;
6679;SDS011;3376;42.664;23.346;2023-06-05T05:33:15;13.53;;;12.40;;
6679;SDS011;3376;42.664;23.346;2023-06-05T05:35:41;15.27;;;13.67;;
6679;SDS011;3376;42.664;23.346;2023-06-05T05:38:08;14.97;;;13.80;;
6679;SDS011;3376;42.664;23.346;2023-06-05T05:40:36;13.80;;;12.90;;
6679;SDS011;3376;42.664;23.346;2023-06-05T05:43:03;13.87;;;12.70;;
6679;SDS011;3376;42.664;23.346;2023-06-05T05:45:30;13.80;;;12.80;;
6679;SDS011;3376;42.664;23.346;2023-06-05T05:47:57;14.53;;;13.33;;
6679;SDS011;3376;42.664;23.346;2023-06-05T05:50:23;14.20;;;13.40;;
6679;SDS011;3376;42.664;23.346;2023-06-05T05:52:50;13.93;;;13.03;;
6679;SDS011;3376;42.664;23.346;2023-06-05T05:55:18;14.13;;;13.23;;
6679;SDS011;3376;42.664;23.346;2023-06-05T05:57:46;13.67;;;12.60;;
6679;SDS011;3376;42.664;23.346;2023-06-05T06:00:13;14.67;;;13.43;;
6679;SDS011;3376;42.664;23.346;2023-06-05T06:02:41;13.07;;;12.30;;
6679;SDS011;3376;42.664;23.346;2023-06-05T06:05:08;13.20;;;12.30;;
6679;SDS011;3376;42.664;23.346;2023-06-05T06:07:37;13.93;;;13.03;;
6679;SDS011;3376;42.664;23.346;2023-06-05T06:10:08;13.17;;;12.40;;
6679;SDS011;3376;42.664;23.346;2023-06-05T06:12:37;15.07;;;13.77;;
6679;SDS011;3376;42.664;23.346;2023-06-05T06:15:05;14.57;;;13.40;;
6679;SDS011;3376;42.664;23.346;2023-06-05T06:17:34;13.13;;;12.13;;
6679;SDS011;3376;42.664;23.346;2023-06-05T06:20:01;12.87;;;12.07;;
6679;SDS011;3376;42.664;23.346;2023-06-05T06:22:33;13.50;;;12.60;;
6679;SDS011;3376;42.664;23.346;2023-06-05T06:25:00;12.77;;;11.77;;
6679;SDS011;3376;42.664;23.346;2023-06-05T06:27:27;13.47;;;12.63;;
6679;SDS011;3376;42.664;23.346;2023-06-05T06:29:54;12.20;;;11.60;;
6679;SDS011;3376;42.664;23.346;2023-06-05T06:32:23;12.93;;;11.80;;
6679;SDS011;3376;42.664;23.346;2023-06-05T06:34:50;13.60;;;12.57;;
6679;SDS011;3376;42.664;23.346;2023-06-05T06:37:19;14.00;;;12.47;;
6679;SDS011;3376;42.664;23.346;2023-06-05T06:39:47;14.03;;;13.07;;
6679;SDS011;3376;42.664;23.346;2023-06-05T06:42:15;13.93;;;12.77;;
6679;SDS011;3376;42.664;23.346;2023-06-05T06:44:42;13.90;;;12.90;;
6679;SDS011;3376;42.664;23.346;2023-06-05T06:47:09;14.40;;;13.60;;
6679;SDS011;3376;42.664;23.346;2023-06-05T06:49:38;14.27;;;13.40;;
6679;SDS011;3376;42.664;23.346;2023-06-05T06:52:05;13.57;;;12.77;;
6679;SDS011;3376;42.664;23.346;2023-06-05T06:54:32;13.23;;;12.53;;
6679;SDS011;3376;42.664;23.346;2023-06-05T06:56:59;14.33;;;13.23;;
6679;SDS011;3376;42.664;23.346;2023-06-05T06:59:26;14.87;;;13.60;;
6679;SDS011;3376;42.664;23.346;2023-06-05T07:02:09;15.83;;;14.50;;
6679;SDS011;3376;42.664;23.346;2023-06-05T07:04:40;15.60;;;14.50;;
6679;SDS011;3376;42.664;23.346;2023-06-05T07:07:08;15.57;;;14.37;;
6679;SDS011;3376;42.664;23.346;2023-06-05T07:09:37;16.67;;;15.03;;
6679;SDS011;3376;42.664;23.346;2023-06-05T07:12:04;15.80;;;14.70;;
6679;SDS011;3376;42.664;23.346;2023-06-05T07:14:32;12.77;;;12.03;;
6679;SDS011;3376;42.664;23.346;2023-06-05T07:16:59;15.13;;;14.20;;
6679;SDS011;3376;42.664;23.346;2023-06-05T07:19:26;15.17;;;13.73;;
6679;SDS011;3376;42.664;23.346;2023-06-05T07:21:55;16.43;;;14.97;;
6679;SDS011;3376;42.664;23.346;2023-06-05T07:24:22;15.03;;;13.97;;
6679;SDS011;3376;42.664;23.346;2023-06-05T07:26:50;16.70;;;14.47;;
6679;SDS011;3376;42.664;23.346;2023-06-05T07:29:18;16.27;;;14.70;;
6679;SDS011;3376;42.664;23.346;2023-06-05T07:31:46;15.47;;;14.37;;
6679;SDS011;3376;42.664;23.346;2023-06-05T07:34:13;14.80;;;13.70;;
6679;SDS011;3376;42.664;23.346;2023-06-05T07:36:40;16.00;;;12.43;;
6679;SDS011;3376;42.664;23.346;2023-06-05T07:39:08;15.10;;;13.90;;
6679;SDS011;3376;42.664;23.346;2023-06-05T07:41:36;18.80;;;13.53;;
6679;SDS011;3376;42.664;23.346;2023-06-05T07:44:05;15.17;;;13.90;;
6679;SDS011;3376;42.664;23.346;2023-06-05T07:46:31;15.40;;;14.10;;
6679;SDS011;3376;42.664;23.346;2023-06-05T07:48:58;15.87;;;14.53;;
6679;SDS011;3376;42.664;23.346;2023-06-05T07:51:25;14.70;;;13.60;;
6679;SDS011;3376;42.664;23.346;2023-06-05T07:53:52;16.20;;;15.10;;
6679;SDS011;3376;42.664;23.346;2023-06-05T07:56:20;15.77;;;14.33;;
6679;SDS011;3376;42.664;23.346;2023-06-05T07:58:49;15.33;;;14.03;;
6679;SDS011;3376;42.664;23.346;2023-06-05T08:01:16;13.80;;;12.80;;
6679;SDS011;3376;42.664;23.346;2023-06-05T08:03:43;14.80;;;13.53;;
6679;SDS011;3376;42.664;23.346;2023-06-05T08:06:10;14.73;;;13.37;;
6679;SDS011;3376;42.664;23.346;2023-06-05T08:08:37;15.93;;;13.07;;
6679;SDS011;3376;42.664;23.346;2023-06-05T08:11:04;13.60;;;12.67;;
6679;SDS011;3376;42.664;23.346;2023-06-05T08:13:32;14.73;;;13.43;;
6679;SDS011;3376;42.664;23.346;2023-06-05T08:15:58;13.55;;;12.55;;
6679;SDS011;3376;42.664;23.346;2023-06-05T08:18:25;14.65;;;12.38;;
6679;SDS011;3376;42.664;23.346;2023-06-05T08:20:52;12.75;;;11.82;;
6679;SDS011;3376;42.664;23.346;2023-06-05T08:23:19;12.77;;;12.00;;
6679;SDS011;3376;42.664;23.346;2023-06-05T08:25:45;13.13;;;11.93;;
6679;SDS011;3376;42.664;23.346;2023-06-05T08:28:13;12.85;;;12.02;;
6679;SDS011;3376;42.664;23.346;2023-06-05T08:30:41;13.00;;;11.95;;
6679;SDS011;3376;42.664;23.346;2023-06-05T08:33:09;12.52;;;11.82;;
6679;SDS011;3376;42.664;23.346;2023-06-05T08:38:06;11.57;;;10.88;;
6679;SDS011;3376;42.664;23.346;2023-06-05T08:40:33;14.95;;;11.70;;
6679;SDS011;3376;42.664;23.346;2023-06-05T08:43:01;12.52;;;11.52;;
6679;SDS011;3376;42.664;23.346;2023-06-05T08:45:30;15.73;;;11.77;;
6679;SDS011;3376;42.664;23.346;2023-06-05T08:48:00;12.98;;;12.02;;
6679;SDS011;3376;42.664;23.346;2023-06-05T08:50:28;12.23;;;11.15;;
6679;SDS011;3376;42.664;23.346;2023-06-05T08:52:56;11.55;;;10.75;;
6679;SDS011;3376;42.664;23.346;2023-06-05T08:55:25;12.30;;;11.25;;
6679;SDS011;3376;42.664;23.346;2023-06-05T08:57:52;11.48;;;10.95;;
6679;SDS011;3376;42.664;23.346;2023-06-05T09:00:20;11.50;;;10.57;;
6679;SDS011;3376;42.664;23.346;2023-06-05T09:02:48;11.77;;;10.85;;
6679;SDS011;3376;42.664;23.346;2023-06-05T09:05:16;12.32;;;11.38;;
6679;SDS011;3376;42.664;23.346;2023-06-05T09:07:43;11.55;;;10.95;;
6679;SDS011;3376;42.664;23.346;2023-06-05T09:10:23;12.77;;;11.40;;
6679;SDS011;3376;42.664;23.346;2023-06-05T09:12:54;11.43;;;10.43;;
6679;SDS011;3376;42.664;23.346;2023-06-05T09:15:22;10.43;;;9.83;;
6679;SDS011;3376;42.664;23.346;2023-06-05T09:18:03;11.67;;;10.87;;
6679;SDS011;3376;42.664;23.346;2023-06-05T09:20:39;11.63;;;10.73;;
6679;SDS011;3376;42.664;23.346;2023-06-05T09:23:23;14.70;;;13.77;;
6679;SDS011;3376;42.664;23.346;2023-06-05T09:25:52;13.23;;;12.23;;
6679;SDS011;3376;42.664;23.346;2023-06-05T09:28:19;10.47;;;9.87;;
6679;SDS011;3376;42.664;23.346;2023-06-05T09:30:53;11.53;;;10.57;;
6679;SDS011;3376;42.664;23.346;2023-06-05T09:33:21;10.07;;;9.20;;
6679;SDS011;3376;42.664;23.346;2023-06-05T09:36:00;10.43;;;9.63;;
6679;SDS011;3376;42.664;23.346;2023-06-05T09:38:28;10.53;;;9.77;;
6679;SDS011;3376;42.664;23.346;2023-06-05T09:41:00;10.10;;;9.37;;
6679;SDS011;3376;42.664;23.346;2023-06-05T09:43:27;12.27;;;11.20;;
6679;SDS011;3376;42.664;23.346;2023-06-05T09:45:54;17.40;;;14.90;;
6679;SDS011;3376;42.664;23.346;2023-06-05T09:48:21;12.57;;;11.57;;
6679;SDS011;3376;42.664;23.346;2023-06-05T09:50:48;11.93;;;11.07;;
6679;SDS011;3376;42.664;23.346;2023-06-05T09:53:16;9.60;;;9.07;;
6679;SDS011;3376;42.664;23.346;2023-06-05T09:55:43;14.23;;;13.13;;
6679;SDS011;3376;42.664;23.346;2023-06-05T09:58:11;9.23;;;8.50;;
6679;SDS011;3376;42.664;23.346;2023-06-05T10:00:39;9.70;;;9.10;;
6679;SDS011;3376;42.664;23.346;2023-06-05T10:03:08;13.60;;;12.47;;
6679;SDS011;3376;42.664;23.346;2023-06-05T10:05:39;10.57;;;10.07;;
6679;SDS011;3376;42.664;23.346;2023-06-05T10:08:06;10.70;;;9.93;;
6679;SDS011;3376;42.664;23.346;2023-06-05T10:10:35;10.50;;;9.87;;
6679;SDS011;3376;42.664;23.346;2023-06-05T10:13:03;11.47;;;10.57;;
6679;SDS011;3376;42.664;23.346;2023-06-05T10:15:31;11.03;;;10.33;;
6679;SDS011;3376;42.664;23.346;2023-06-05T10:17:59;11.00;;;10.47;;
6679;SDS011;3376;42.664;23.346;2023-06-05T10:20:27;11.33;;;10.63;;
6679;SDS011;3376;42.664;23.346;2023-06-05T10:22:54;12.87;;;11.50;;
6679;SDS011;3376;42.664;23.346;2023-06-05T10:25:21;13.97;;;12.73;;
6679;SDS011;3376;42.664;23.346;2023-06-05T10:27:56;12.20;;;11.33;;
6679;SDS011;3376;42.664;23.346;2023-06-05T10:33:57;17.73;;;16.27;;
6679;SDS011;3376;42.664;23.346;2023-06-05T10:39:31;12.33;;;11.30;;
6679;SDS011;3376;42.664;23.346;2023-06-05T10:41:59;10.03;;;9.43;;
6679;SDS011;3376;42.664;23.346;2023-06-05T10:44:40;11.37;;;10.30;;
6679;SDS011;3376;42.664;23.346;2023-06-05T10:50:23;13.20;;;12.23;;
6679;SDS011;3376;42.664;23.346;2023-06-05T10:52:56;12.20;;;11.10;;
6679;SDS011;3376;42.664;23.346;2023-06-05T10:55:24;12.20;;;11.40;;
6679;SDS011;3376;42.664;23.346;2023-06-05T10:58:02;12.67;;;11.50;;
6679;SDS011;3376;42.664;23.346;2023-06-05T11:00:31;12.23;;;11.07;;
6679;SDS011;3376;42.664;23.346;2023-06-05T11:02:58;11.83;;;11.13;;
6679;SDS011;3376;42.664;23.346;2023-06-05T11:05:25;12.60;;;11.50;;
6679;SDS011;3376;42.664;23.346;2023-06-05T11:16:28;9.63;;;8.90;;
6679;SDS011;3376;42.664;23.346;2023-06-05T11:22:04;9.13;;;8.53;;
6679;SDS011;3376;42.664;23.346;2023-06-05T11:24:32;9.40;;;8.67;;
6679;SDS011;3376;42.664;23.346;2023-06-05T11:27:00;8.40;;;8.10;;
6679;SDS011;3376;42.664;23.346;2023-06-05T11:29:28;9.43;;;8.90;;
6679;SDS011;3376;42.664;23.346;2023-06-05T11:31:57;8.83;;;8.50;;
6679;SDS011;3376;42.664;23.346;2023-06-05T11:34:24;9.43;;;8.80;;
6679;SDS011;3376;42.664;23.346;2023-06-05T11:36:52;8.23;;;7.73;;
6679;SDS011;3376;42.664;23.346;2023-06-05T11:39:20;8.27;;;7.87;;
6679;SDS011;3376;42.664;23.346;2023-06-05T11:41:48;8.57;;;8.17;;
6679;SDS011;3376;42.664;23.346;2023-06-05T11:44:29;12.10;;;7.87;;
6679;SDS011;3376;42.664;23.346;2023-06-05T11:46:58;8.57;;;7.87;;
6679;SDS011;3376;42.664;23.346;2023-06-05T11:49:26;9.27;;;8.57;;
6679;SDS011;3376;42.664;23.346;2023-06-05T11:51:54;8.82;;;8.20;;
6679;SDS011;3376;42.664;23.346;2023-06-05T11:54:25;8.23;;;7.82;;
6679;SDS011;3376;42.664;23.346;2023-06-05T11:56:56;8.43;;;7.93;;
6679;SDS011;3376;42.664;23.346;2023-06-05T11:59:24;7.82;;;7.38;;
6679;SDS011;3376;42.664;23.346;2023-06-05T12:01:51;9.15;;;8.48;;
6679;SDS011;3376;42.664;23.346;2023-06-05T12:04:20;8.07;;;7.35;;
6679;SDS011;3376;42.664;23.346;2023-06-05T12:06:48;7.70;;;7.30;;
6679;SDS011;3376;42.664;23.346;2023-06-05T12:09:16;7.57;;;7.15;;
6679;SDS011;3376;42.664;23.346;2023-06-05T12:11:44;6.30;;;6.10;;
6679;SDS011;3376;42.664;23.346;2023-06-05T12:14:11;7.03;;;6.63;;
6679;SDS011;3376;42.664;23.346;2023-06-05T12:16:39;7.15;;;6.75;;
6679;SDS011;3376;42.664;23.346;2023-06-05T12:19:12;5.97;;;5.68;;
6679;SDS011;3376;42.664;23.346;2023-06-05T12:21:41;6.25;;;5.90;;
6679;SDS011;3376;42.664;23.346;2023-06-05T12:24:08;5.93;;;5.63;;
6679;SDS011;3376;42.664;23.346;2023-06-05T12:26:48;7.05;;;6.65;;
6679;SDS011;3376;42.664;23.346;2023-06-05T12:29:18;6.82;;;6.53;;
6679;SDS011;3376;42.664;23.346;2023-06-05T12:31:46;5.72;;;5.32;;
6679;SDS011;3376;42.664;23.346;2023-06-05T12:34:13;5.80;;;5.40;;
6679;SDS011;3376;42.664;23.346;2023-06-05T12:36:43;5.80;;;5.50;;
6679;SDS011;3376;42.664;23.346;2023-06-05T12:39:12;5.80;;;5.60;;
6679;SDS011;3376;42.664;23.346;2023-06-05T12:41:41;6.30;;;5.88;;
6679;SDS011;3376;42.664;23.346;2023-06-05T12:44:09;6.28;;;5.85;;
6679;SDS011;3376;42.664;23.346;2023-06-05T12:46:37;6.22;;;5.82;;
6679;SDS011;3376;42.664;23.346;2023-06-05T12:49:05;8.73;;;5.40;;
6679;SDS011;3376;42.664;23.346;2023-06-05T12:51:32;6.13;;;5.63;;
6679;SDS011;3376;42.664;23.346;2023-06-05T12:54:01;5.30;;;5.00;;
6679;SDS011;3376;42.664;23.346;2023-06-05T12:56:27;6.28;;;5.90;;
6679;SDS011;3376;42.664;23.346;2023-06-05T12:58:55;5.25;;;4.40;;
6679;SDS011;3376;42.664;23.346;2023-06-05T13:01:23;5.80;;;5.20;;
6679;SDS011;3376;42.664;23.346;2023-06-05T13:03:51;5.88;;;5.47;;
6679;SDS011;3376;42.664;23.346;2023-06-05T13:06:18;5.00;;;4.80;;
6679;SDS011;3376;42.664;23.346;2023-06-05T13:08:45;5.63;;;5.13;;
6679;SDS011;3376;42.664;23.346;2023-06-05T13:11:14;5.07;;;4.88;;
6679;SDS011;3376;42.664;23.346;2023-06-05T13:13:41;9.68;;;5.28;;
6679;SDS011;3376;42.664;23.346;2023-06-05T13:16:07;4.82;;;4.60;;
6679;SDS011;3376;42.664;23.346;2023-06-05T13:18:35;5.07;;;4.78;;
6679;SDS011;3376;42.664;23.346;2023-06-05T13:21:02;5.63;;;5.43;;
6679;SDS011;3376;42.664;23.346;2023-06-05T13:23:30;4.93;;;4.72;;
6679;SDS011;3376;42.664;23.346;2023-06-05T13:25:57;5.40;;;4.28;;
6679;SDS011;3376;42.664;23.346;2023-06-05T13:28:25;4.95;;;4.75;;
6679;SDS011;3376;42.664;23.346;2023-06-05T13:30:52;5.68;;;5.15;;
6679;SDS011;3376;42.664;23.346;2023-06-05T13:33:19;4.85;;;4.45;;
6679;SDS011;3376;42.664;23.346;2023-06-05T13:35:46;4.63;;;4.43;;
6679;SDS011;3376;42.664;23.346;2023-06-05T13:38:13;4.95;;;4.65;;
6679;SDS011;3376;42.664;23.346;2023-06-05T13:40:39;5.70;;;5.40;;
6679;SDS011;3376;42.664;23.346;2023-06-05T13:43:12;9.20;;;8.80;;
6679;SDS011;3376;42.664;23.346;2023-06-05T13:45:40;8.43;;;7.68;;
6679;SDS011;3376;42.664;23.346;2023-06-05T13:48:07;6.85;;;6.45;;
6679;SDS011;3376;42.664;23.346;2023-06-05T13:50:34;8.13;;;7.70;;
6679;SDS011;3376;42.664;23.346;2023-06-05T13:53:00;7.18;;;6.88;;
6679;SDS011;3376;42.664;23.346;2023-06-05T13:55:28;5.82;;;5.43;;
6679;SDS011;3376;42.664;23.346;2023-06-05T13:57:54;5.72;;;5.53;;
6679;SDS011;3376;42.664;23.346;2023-06-05T14:00:25;5.82;;;5.63;;
6679;SDS011;3376;42.664;23.346;2023-06-05T14:02:54;4.72;;;4.53;;
6679;SDS011;3376;42.664;23.346;2023-06-05T14:05:20;4.85;;;4.50;;
6679;SDS011;3376;42.664;23.346;2023-06-05T14:07:47;4.88;;;4.68;;
6679;SDS011;3376;42.664;23.346;2023-06-05T14:10:15;4.82;;;4.45;;
6679;SDS011;3376;42.664;23.346;2023-06-05T14:12:43;5.15;;;4.75;;
6679;SDS011;3376;42.664;23.346;2023-06-05T14:15:10;4.97;;;4.63;;
6679;SDS011;3376;42.664;23.346;2023-06-05T14:17:38;5.60;;;5.40;;
6679;SDS011;3376;42.664;23.346;2023-06-05T14:20:07;5.32;;;5.05;;
6679;SDS011;3376;42.664;23.346;2023-06-05T14:22:34;5.32;;;4.95;;
6679;SDS011;3376;42.664;23.346;2023-06-05T14:25:01;5.18;;;4.88;;
6679;SDS011;3376;42.664;23.346;2023-06-05T14:27:27;4.93;;;4.70;;
6679;SDS011;3376;42.664;23.346;2023-06-05T14:29:54;5.05;;;4.85;;
6679;SDS011;3376;42.664;23.346;2023-06-05T14:32:21;6.00;;;5.60;;
6679;SDS011;3376;42.664;23.346;2023-06-05T14:34:48;5.43;;;5.10;;
6679;SDS011;3376;42.664;23.346;2023-06-05T14:37:16;5.50;;;5.30;;
6679;SDS011;3376;42.664;23.346;2023-06-05T14:39:43;5.93;;;5.53;;
6679;SDS011;3376;42.664;23.346;2023-06-05T14:42:09;6.00;;;5.70;;
6679;SDS011;3376;42.664;23.346;2023-06-05T14:44:36;5.97;;;5.63;;
6679;SDS011;3376;42.664;23.346;2023-06-05T14:47:03;6.30;;;5.90;;
6679;SDS011;3376;42.664;23.346;2023-06-05T14:49:30;5.47;;;5.20;;
6679;SDS011;3376;42.664;23.346;2023-06-05T14:51:57;12.37;;;6.03;;
6679;SDS011;3376;42.664;23.346;2023-06-05T14:54:25;6.10;;;5.80;;
6679;SDS011;3376;42.664;23.346;2023-06-05T14:56:52;6.50;;;5.87;;
6679;SDS011;3376;42.664;23.346;2023-06-05T14:59:19;6.80;;;5.77;;
6679;SDS011;3376;42.664;23.346;2023-06-05T15:01:46;6.03;;;5.70;;
6679;SDS011;3376;42.664;23.346;2023-06-05T15:04:12;5.77;;;5.37;;
6679;SDS011;3376;42.664;23.346;2023-06-05T15:06:39;6.63;;;6.13;;
6679;SDS011;3376;42.664;23.346;2023-06-05T15:09:06;6.33;;;5.93;;
6679;SDS011;3376;42.664;23.346;2023-06-05T15:11:35;6.97;;;6.33;;
6679;SDS011;3376;42.664;23.346;2023-06-05T15:14:02;6.63;;;6.13;;
6679;SDS011;3376;42.664;23.346;2023-06-05T15:16:28;6.23;;;5.90;;
6679;SDS011;3376;42.664;23.346;2023-06-05T15:18:55;6.70;;;6.40;;